createdAt,value
2018-09-30T00:03:41.878Z,61.20
2018-09-30T00:08:45.189Z,62.30
2018-09-30T00:13:48.729Z,61.70
2018-09-30T00:18:52.169Z,61.80
2018-09-30T00:24:01.564Z,62.30
2018-09-30T00:29:05.041Z,61.90
2018-09-30T00:34:14.009Z,62.00
2018-09-30T00:39:17.528Z,62.20
2018-09-30T00:44:20.998Z,62.40
2018-09-30T00:49:24.521Z,62.10
2018-09-30T00:54:28.077Z,62.10
2018-09-30T00:59:31.694Z,61.80
2018-09-30T01:04:35.136Z,61.60
2018-09-30T01:09:38.664Z,62.30
2018-09-30T01:14:42.097Z,61.50
2018-09-30T01:19:45.735Z,61.10
2018-09-30T01:24:49.182Z,61.50
2018-09-30T01:29:52.637Z,61.20
2018-09-30T01:34:56.048Z,61.20
2018-09-30T01:39:59.569Z,61.30
2018-09-30T01:45:03.925Z,61.90
2018-09-30T01:50:07.414Z,61.60
2018-09-30T01:55:10.998Z,61.60
2018-09-30T02:00:14.531Z,61.10
2018-09-30T02:05:19.074Z,60.90
2018-09-30T02:10:22.490Z,60.70
2018-09-30T02:15:25.936Z,60.60
2018-09-30T02:20:29.252Z,60.80
2018-09-30T02:25:33.746Z,60.50
2018-09-30T02:30:37.121Z,61.10
2018-09-30T02:35:40.653Z,60.90
2018-09-30T02:40:44.155Z,61.50
2018-09-30T02:45:47.655Z,61.70
2018-09-30T02:50:51.146Z,62.70
2018-09-30T02:55:54.626Z,62.50
2018-09-30T03:00:58.324Z,62.50
2018-09-30T03:06:10.930Z,63.00
2018-09-30T03:11:14.463Z,62.90
2018-09-30T03:23:11.355Z,63.50
2018-09-30T03:28:14.806Z,63.10
2018-09-30T03:33:18.155Z,63.30
2018-09-30T03:38:21.496Z,63.60
2018-09-30T03:43:24.880Z,63.40
2018-09-30T03:48:28.242Z,63.60
2018-09-30T03:53:31.950Z,63.00
2018-09-30T03:58:35.549Z,63.00
2018-09-30T04:03:39.228Z,63.90
2018-09-30T04:08:42.639Z,63.30
2018-09-30T04:13:45.958Z,62.90
2018-09-30T04:18:49.306Z,63.10
2018-09-30T04:23:59.212Z,63.30
2018-09-30T04:29:02.801Z,63.40
2018-09-30T04:34:06.261Z,63.60
2018-09-30T04:39:09.699Z,63.20
2018-09-30T04:44:13.075Z,63.90
2018-09-30T04:49:16.391Z,63.40
2018-09-30T04:54:19.792Z,63.50
2018-09-30T04:59:23.150Z,63.20
2018-09-30T05:04:26.621Z,63.10
2018-09-30T05:09:30.105Z,63.20
2018-09-30T05:14:33.507Z,62.80
2018-09-30T05:19:36.921Z,62.80
2018-09-30T05:24:40.336Z,62.70
2018-09-30T05:29:43.893Z,62.60
2018-09-30T05:34:47.293Z,63.50
2018-09-30T05:39:50.621Z,63.10
2018-09-30T05:44:54.018Z,63.00
2018-09-30T05:49:57.447Z,63.30
2018-09-30T05:55:00.839Z,63.10
2018-09-30T06:00:05.063Z,63.60
2018-09-30T06:05:08.807Z,63.80
2018-09-30T06:10:12.308Z,63.90
2018-09-30T06:15:16.034Z,64.00
2018-09-30T06:20:19.551Z,63.80
2018-09-30T06:25:24.136Z,63.50
2018-09-30T06:30:27.598Z,63.50
2018-09-30T06:35:31.175Z,63.30
2018-09-30T06:40:34.743Z,62.80
2018-09-30T06:45:38.515Z,63.10
2018-09-30T06:50:41.987Z,62.40
2018-09-30T06:55:45.691Z,62.50
2018-09-30T07:00:49.236Z,61.20
2018-09-30T07:05:52.728Z,62.90
2018-09-30T07:10:56.341Z,61.00
2018-09-30T07:15:59.673Z,61.10
2018-09-30T07:21:03.024Z,60.40
2018-09-30T07:26:06.481Z,60.00
2018-09-30T07:31:09.987Z,59.00
2018-09-30T07:36:13.721Z,58.30
2018-09-30T07:41:17.208Z,58.00
2018-09-30T07:46:20.619Z,58.10
2018-09-30T07:51:24.039Z,57.30
2018-09-30T07:56:27.548Z,56.70
2018-09-30T08:01:30.941Z,56.50
2018-09-30T08:06:34.443Z,55.40
2018-09-30T08:11:37.696Z,56.40
2018-09-30T08:16:41.781Z,56.00
2018-09-30T08:21:45.308Z,56.80
2018-09-30T08:26:48.693Z,56.00
2018-09-30T08:31:52.339Z,56.50
2018-09-30T08:36:55.700Z,55.50
2018-09-30T08:41:59.453Z,55.60
2018-09-30T08:47:02.850Z,55.90
2018-09-30T08:52:06.299Z,53.70
2018-09-30T08:57:09.693Z,52.60
2018-09-30T09:02:13.504Z,52.40
2018-09-30T09:07:17.131Z,51.80
2018-09-30T09:12:20.547Z,51.30
2018-09-30T09:17:24.003Z,50.80
2018-09-30T09:22:27.639Z,50.90
2018-09-30T09:27:31.256Z,50.30
2018-09-30T09:32:36.583Z,50.70
2018-09-30T09:37:40.060Z,50.30
2018-09-30T09:42:43.756Z,49.40
2018-09-30T09:47:47.357Z,50.40
2018-09-30T09:52:50.760Z,49.50
2018-09-30T09:57:54.309Z,49.70
2018-09-30T10:02:57.756Z,48.20
2018-09-30T10:08:02.233Z,48.60
2018-09-30T10:13:05.804Z,48.40
2018-09-30T10:18:09.367Z,47.50
2018-09-30T10:23:12.776Z,47.80
2018-09-30T10:28:16.491Z,47.10
2018-09-30T10:33:20.522Z,45.80
2018-09-30T10:38:23.950Z,45.90
2018-09-30T10:43:27.733Z,46.20
2018-09-30T10:48:31.451Z,46.50
2018-09-30T10:53:35.760Z,46.20
2018-09-30T10:58:39.239Z,46.30
2018-09-30T11:03:42.875Z,47.80
2018-09-30T11:08:46.305Z,47.40
2018-09-30T11:13:49.759Z,47.40
2018-09-30T11:18:53.185Z,47.60
2018-09-30T11:23:56.716Z,47.40
2018-09-30T11:29:00.100Z,47.40
2018-09-30T11:34:03.409Z,46.90
2018-09-30T11:39:10.287Z,47.50
2018-09-30T11:44:13.698Z,46.30
2018-09-30T11:49:17.077Z,46.70
2018-09-30T11:54:20.385Z,47.80
2018-09-30T11:59:23.950Z,47.50
2018-09-30T12:04:27.644Z,48.00
2018-09-30T12:09:31.206Z,48.20
2018-09-30T12:14:34.648Z,48.10
2018-09-30T12:19:38.158Z,48.80
2018-09-30T12:24:41.651Z,48.90
2018-09-30T12:29:45.090Z,48.40
2018-09-30T12:34:53.880Z,48.70
2018-09-30T12:39:57.340Z,49.00
2018-09-30T12:45:00.807Z,49.60
2018-09-30T12:50:04.351Z,49.00
2018-09-30T12:55:07.936Z,49.30
2018-09-30T13:00:11.984Z,48.00
2018-09-30T13:05:16.449Z,49.10
2018-09-30T13:10:19.926Z,48.40
2018-09-30T13:15:38.095Z,48.20
2018-09-30T13:20:41.547Z,48.10
2018-09-30T13:25:45.083Z,48.80
2018-09-30T13:30:48.678Z,48.60
2018-09-30T13:35:52.171Z,49.30
2018-09-30T13:40:55.946Z,48.10
2018-09-30T13:45:59.292Z,48.90
2018-09-30T13:51:03.049Z,49.50
2018-09-30T13:56:06.681Z,47.60
2018-09-30T14:01:10.166Z,48.10
2018-09-30T14:06:13.649Z,48.50
2018-09-30T14:11:17.092Z,49.50
2018-09-30T14:16:20.441Z,51.00
2018-09-30T14:21:23.796Z,51.60
2018-09-30T14:26:27.270Z,50.30
2018-09-30T14:31:30.572Z,50.50
2018-09-30T14:36:33.987Z,50.40
2018-09-30T14:41:37.635Z,51.50
2018-09-30T14:46:41.018Z,52.60
2018-09-30T14:51:44.615Z,53.40
2018-09-30T14:56:48.217Z,52.80
2018-09-30T15:01:51.703Z,51.60
2018-09-30T15:06:55.187Z,50.90
2018-09-30T15:11:58.661Z,51.00
2018-09-30T15:17:02.032Z,50.80
2018-09-30T15:22:05.616Z,51.70
2018-09-30T15:27:09.297Z,52.00
2018-09-30T15:32:12.744Z,52.70
2018-09-30T15:37:16.144Z,52.00
2018-09-30T15:42:19.534Z,52.10
2018-09-30T15:47:22.880Z,51.90
2018-09-30T15:52:26.682Z,52.50
2018-09-30T15:57:30.235Z,51.60
2018-09-30T16:02:33.656Z,51.10
2018-09-30T16:07:37.251Z,51.50
2018-09-30T16:12:40.824Z,51.20
2018-09-30T16:17:44.448Z,51.00
2018-09-30T16:22:48.056Z,51.40
2018-09-30T16:27:51.867Z,51.20
2018-09-30T16:32:55.368Z,51.70
2018-09-30T16:37:58.808Z,51.60
2018-09-30T16:43:02.213Z,52.60
2018-09-30T16:48:05.701Z,52.20
2018-09-30T16:53:09.132Z,52.50
2018-09-30T16:58:12.660Z,52.90
2018-09-30T17:03:16.133Z,53.40
2018-09-30T17:08:19.774Z,53.90
2018-09-30T17:13:23.170Z,55.20
2018-09-30T17:18:26.911Z,56.10
2018-09-30T17:23:30.880Z,56.60
2018-09-30T17:28:34.453Z,58.40
2018-09-30T17:33:37.970Z,58.90
2018-09-30T17:38:41.470Z,60.30
2018-09-30T17:43:44.880Z,60.70
2018-09-30T17:48:48.309Z,61.30
2018-09-30T17:53:51.769Z,61.80
2018-09-30T17:58:55.321Z,62.40
2018-09-30T18:04:00.189Z,62.90
2018-09-30T18:09:05.390Z,63.40
2018-09-30T18:14:08.923Z,63.80
2018-09-30T18:19:12.601Z,64.50
2018-09-30T18:24:16.090Z,64.10
2018-09-30T18:29:19.617Z,64.30
2018-09-30T18:34:23.185Z,64.50
2018-09-30T18:39:26.944Z,64.70
2018-09-30T18:44:30.702Z,65.00
2018-09-30T18:49:34.139Z,64.90
2018-09-30T18:54:37.844Z,65.00
2018-09-30T18:59:41.277Z,65.80
2018-09-30T19:04:44.967Z,65.70
2018-09-30T19:09:48.434Z,65.00
2018-09-30T19:14:52.236Z,64.90
2018-09-30T19:19:55.656Z,64.80
2018-09-30T19:25:00.420Z,65.10
2018-09-30T19:30:04.145Z,65.20
2018-09-30T19:35:08.656Z,65.20
2018-09-30T19:40:12.093Z,65.10
2018-09-30T19:45:15.735Z,64.80
2018-09-30T19:50:19.132Z,64.70
2018-09-30T19:55:22.689Z,64.50
2018-09-30T20:00:26.156Z,64.50
2018-09-30T20:05:29.872Z,64.90
2018-09-30T20:10:33.495Z,64.90
2018-09-30T20:15:36.942Z,65.00
2018-09-30T20:20:40.378Z,65.00
2018-09-30T20:25:43.769Z,64.90
2018-09-30T20:30:47.344Z,65.00
2018-09-30T20:35:50.848Z,64.90
2018-09-30T20:40:54.492Z,64.90
2018-09-30T20:45:58.872Z,64.90
2018-09-30T20:51:02.718Z,64.70
2018-09-30T20:56:06.816Z,65.00
2018-09-30T21:01:10.312Z,65.20
2018-09-30T21:06:35.632Z,65.40
2018-09-30T21:11:39.266Z,65.20
2018-09-30T21:16:42.600Z,66.00
2018-09-30T21:21:45.963Z,65.70
2018-09-30T21:26:49.377Z,65.70
2018-09-30T21:31:52.890Z,66.00
2018-09-30T21:36:56.422Z,66.20
2018-09-30T21:41:59.827Z,66.30
2018-09-30T21:47:03.358Z,66.60
2018-09-30T21:52:07.254Z,67.00
2018-09-30T21:57:10.715Z,67.50
2018-09-30T22:02:14.280Z,67.80
2018-09-30T22:07:17.941Z,67.90
2018-09-30T22:12:21.452Z,68.20
2018-09-30T22:17:24.884Z,68.20
2018-09-30T22:22:28.439Z,68.60
2018-09-30T22:27:32.017Z,68.50
2018-09-30T22:32:35.520Z,68.70
2018-09-30T22:37:39.178Z,68.90
2018-09-30T22:42:42.622Z,69.00
2018-09-30T22:47:46.087Z,69.10
2018-09-30T22:52:49.733Z,69.10
2018-09-30T22:57:53.079Z,69.30
2018-09-30T23:02:56.583Z,69.40
2018-09-30T23:08:00.047Z,69.40
2018-09-30T23:13:03.557Z,69.30
2018-09-30T23:18:07.024Z,69.40
2018-09-30T23:23:10.411Z,69.40
2018-09-30T23:28:13.970Z,69.20
2018-09-30T23:33:17.703Z,69.60
2018-09-30T23:38:21.196Z,69.60
2018-09-30T23:43:24.626Z,69.60
2018-09-30T23:48:27.991Z,69.50
2018-09-30T23:53:31.415Z,69.90
2018-09-30T23:58:34.794Z,70.40
